avis per tempestes more information blitzortung!


avis per Pluja more information rain snow radar


Visita la nostra xarxa de llocs de meteo:

Template documentation
and downloads

And another site



Rain From: 17-08-2018 13:00 Until: 22:59 warning for: Rain Level: Orange info button
Thunderstorms From: 17-08-2018 12:00 Until: 18-08-2018 08:59 warning for: Thunderstorms Level: Yellow info button

Pagina Historial Weather Underground text

Diari Resum January 28, 2018 Unitats:  Mètric    Imperial   Tant
« Previous Dia
SegĂźent Dia »
Diari Setmana Mensual Anual Personalitzada
  Maxima: Minima: Media:
Temperatura: -17.8 °C -14.7 °C -11.3 °C
Punt de rosada: -17.8 °C -17.3 °C -15.3 °C
Humitat: Humidity % 51 % 61 %
Wind Speed: 0 km/h 0 km/h 6.3 km/h
RĂ fegues de vent: 0 km/h - -
Vent:- - NE
Pression baro: 0 hPa 35001.1 hPa -
Precipitacions: 0 mm    
Historical Graphs
 
 
Dades de taula per January 28, 2018
Temps Temperatura Punt de rosada Pression baro Vent Wind Speed RĂ fegues de vent Humitat Rainfall Rate (Hourly)
-17.8 °C -17.8 °C 0 hPa Calm     Humidity % 0 mm
00:00 -13.5 °C -16.2 °C 35001.1 hPa NE 3.1 km/h 3.1 km/h 71 % 0 mm
00:05 -13.4 °C -16.1 °C 35001.1 hPa NE 6 km/h 6 km/h 72 % 0 mm
00:10 -13.4 °C -16.1 °C 35001.1 hPa Calm     72 % 0 mm
00:15 -13.4 °C -16.2 °C 35001.1 hPa NE 3.1 km/h 3.1 km/h 71 % 0 mm
00:20 -13.4 °C -16.2 °C 35001.1 hPa NE 4.2 km/h 4.2 km/h 71 % 0 mm
00:25 -13.3 °C -16.1 °C 35001.1 hPa Calm     71 % 0 mm
00:30 -14.1 °C -16.9 °C 35038.3 hPa Calm   2.6 km/h 70 % 0 mm
00:40 -14.2 °C -17 °C 35038.3 hPa Calm   2.6 km/h 70 % 0 mm
00:50 -14.2 °C -17 °C 35038.3 hPa NE 2.6 km/h 2.6 km/h 70 % 0 mm
01:00 -14.3 °C -17.2 °C 35038.3 hPa Calm   2.6 km/h 70 % 0 mm
01:10 -14.4 °C -17.2 °C 35038.3 hPa NE 5.1 km/h 7.7 km/h 70 % 0 mm
01:20 -14.4 °C -17.1 °C 35038.3 hPa NE 2.6 km/h 5.1 km/h 71 % 0 mm
01:30 -14.4 °C -17.2 °C 35038.3 hPa NE 2.6 km/h 2.6 km/h 71 % 0 mm
01:40 -14.5 °C -17.2 °C 35072.2 hPa NE 2.6 km/h 7.7 km/h 71 % 0 mm
01:50 -14.6 °C -17.3 °C 35038.3 hPa Calm   2.6 km/h 71 % 0 mm
02:00 -14.6 °C -17.3 °C 35038.3 hPa Calm     71 % 0 mm
02:10 -14.7 °C -17.3 °C 35072.2 hPa Calm     72 % 0 mm
02:20 -14.7 °C -17.3 °C 35072.2 hPa Calm   2.6 km/h 72 % 0 mm
02:30 -14.7 °C -17.3 °C 35072.2 hPa Calm   2.6 km/h 72 % 0 mm
02:40 -14.7 °C -17.2 °C 35106 hPa Calm   5.1 km/h 73 % 0 mm
02:50 -14.5 °C -17 °C 35106 hPa Calm   5.1 km/h 73 % 0 mm
03:00 -14.4 °C -16.9 °C 35106 hPa NE 5.1 km/h 5.1 km/h 73 % 0 mm
03:10 -14.4 °C -16.9 °C 35106 hPa NE 5.1 km/h 7.7 km/h 73 % 0 mm
03:20 -14.2 °C -16.7 °C 35139.9 hPa NE 2.6 km/h 7.7 km/h 73 % 0 mm
03:30 -13.8 °C -16.3 °C 35139.9 hPa Calm   5.1 km/h 73 % 0 mm
03:40 -13.5 °C -16.2 °C 35139.9 hPa NE 5.1 km/h 5.1 km/h 72 % 0 mm
03:50 -13.2 °C -15.8 °C 35139.9 hPa NE 2.6 km/h 5.1 km/h 72 % 0 mm
04:00 -13.2 °C -15.9 °C 35139.9 hPa NE 2.6 km/h 5.1 km/h 71 % 0 mm
04:10 -13 °C -15.9 °C 35139.9 hPa NE 2.6 km/h 5.1 km/h 70 % 0 mm
04:20 -12.6 °C -15.4 °C 35106 hPa NE 2.6 km/h 5.1 km/h 70 % 0 mm
04:30 -12 °C -15.1 °C 35106 hPa Calm     69 % 0 mm
04:40 -11.9 °C -15.1 °C 35139.9 hPa NE 2.6 km/h 2.6 km/h 68 % 0 mm
10:44 -11.9 °C -15.2 °C 35139.9 hPa NE 3.1 km/h 9.3 km/h 67 % 0 mm
10:49 -12.1 °C -15.6 °C 35139.9 hPa NE 11.9 km/h 11.9 km/h 65 % 0 mm
10:54 -12.1 °C -15.7 °C 35139.9 hPa NE 9 km/h 9.3 km/h 64 % 0 mm
10:59 -11.9 °C -15.4 °C 35139.9 hPa NE 6 km/h 6.8 km/h 65 % 0 mm
11:04 -11.8 °C -15.4 °C 35173.8 hPa NE 3.7 km/h 6.8 km/h 64 % 0 mm
11:09 -11.7 °C -15.4 °C 35173.8 hPa NE 9 km/h 9 km/h 64 % 0 mm
11:14 -11.5 °C -15.2 °C 35173.8 hPa NE 6 km/h 6 km/h 64 % 0 mm
11:19 -11.3 °C -14.9 °C 35173.8 hPa NE 3.1 km/h 3.1 km/h 64 % 0 mm
11:24 -11.1 °C -14.8 °C 35173.8 hPa NE 6 km/h 6 km/h 64 % 0 mm
11:29 -11.2 °C -14.9 °C 35173.8 hPa NE 9 km/h 9 km/h 63 % 0 mm
11:34 -11.1 °C -14.8 °C 35173.8 hPa NE 9 km/h 9 km/h 63 % 0 mm
11:39 -10.9 °C -14.8 °C 35173.8 hPa NE 6 km/h 6 km/h 63 % 0 mm
11:44 -10.8 °C -14.6 °C 35173.8 hPa NE 6 km/h 6 km/h 63 % 0 mm
11:49 -10.7 °C -14.5 °C 35173.8 hPa NE 6 km/h 6 km/h 63 % 0 mm
11:54 -10.4 °C -14.6 °C 35173.8 hPa NE 6 km/h 6 km/h 61 % 0 mm
11:59 -10.4 °C -14.5 °C 35173.8 hPa NE 7.6 km/h 7.6 km/h 61 % 0 mm
12:04 -10.4 °C -14.5 °C 35139.9 hPa NE 6.8 km/h 6.8 km/h 61 % 0 mm
12:09 -10.3 °C -14.4 °C 35139.9 hPa NE 5.1 km/h   61 % 0 mm
12:14 -10.3 °C -14.5 °C 35139.9 hPa NE 3.7 km/h 4.2 km/h 60 % 0 mm
12:19 -10.1 °C -14.3 °C 35139.9 hPa NE 6 km/h 6 km/h 60 % 0 mm
12:24 -9.9 °C -14.1 °C 35139.9 hPa NE 6 km/h 6 km/h 61 % 0 mm
12:29 -9.8 °C -14.1 °C 35139.9 hPa NE 3.1 km/h   60 % 0 mm
12:34 -9.7 °C -13.9 °C 35139.9 hPa NE 3.1 km/h 3.1 km/h 60 % 0 mm
12:39 -9.7 °C -13.9 °C 35139.9 hPa NE 6 km/h 6 km/h 60 % 0 mm
12:44 -9.7 °C -14.2 °C 35139.9 hPa NE 6 km/h 6 km/h 58 % 0 mm
12:49 -9.4 °C -14.1 °C 35139.9 hPa NE 6 km/h 6 km/h 57 % 0 mm
12:54 -9.2 °C -13.7 °C 35139.9 hPa Calm     59 % 0 mm
12:59 -9.3 °C -13.8 °C 35139.9 hPa NE 3.1 km/h   58 % 0 mm
13:04 -9.2 °C -13.7 °C 35139.9 hPa NE 3.1 km/h   58 % 0 mm
13:09 -9 °C -13.6 °C 35139.9 hPa NE 6.8 km/h 6.8 km/h 58 % 0 mm
13:14 -9.1 °C -13.8 °C 35139.9 hPa NE 6 km/h 6.8 km/h 57 % 0 mm
13:19 -9.1 °C -14.1 °C 35139.9 hPa NE 6 km/h 6 km/h 55 % 0 mm
13:24 -8.8 °C -13.7 °C 35139.9 hPa NE 3.7 km/h   56 % 0 mm
13:29 -9.1 °C -14.1 °C 35139.9 hPa NE 8 km/h 8 km/h 55 % 0 mm
13:34 -9.1 °C -14.1 °C 35139.9 hPa NE 15 km/h 15 km/h 55 % 0 mm
13:39 -9 °C -14.2 °C 35139.9 hPa NE 11.9 km/h 11.9 km/h 54 % 0 mm
13:44 -8.8 °C -13.8 °C 35139.9 hPa NE 3.1 km/h 3.7 km/h 55 % 0 mm
13:49 -8.8 °C -13.9 °C 35139.9 hPa NE 14 km/h 14 km/h 54 % 0 mm
13:54 -9.1 °C -14.2 °C 35139.9 hPa NE 15 km/h 15 km/h 54 % 0 mm
13:59 -9.2 °C -14.5 °C 35139.9 hPa NE 9 km/h 9 km/h 53 % 0 mm
14:04 -8.9 °C -14.1 °C 35139.9 hPa NE 6.3 km/h   54 % 0 mm
14:09 -9.1 °C -14.2 °C 35139.9 hPa NE 10.3 km/h 10.3 km/h 54 % 0 mm
14:14 -9.1 °C -14.3 °C 35139.9 hPa NE 20.9 km/h 20.9 km/h 54 % 0 mm
14:19 -9.1 °C -14.2 °C 35106 hPa NE 15 km/h 15 km/h 54 % 0 mm
14:24 -9 °C -14.3 °C 35106 hPa NE 15 km/h 15 km/h 53 % 0 mm
14:29 -9 °C -14.3 °C 35106 hPa NE 12.2 km/h 12.2 km/h 53 % 0 mm
14:34 -9 °C -14.3 °C 35139.9 hPa NE 11.9 km/h 11.9 km/h 53 % 0 mm
14:39 -8.9 °C -14.3 °C 35139.9 hPa NE 11.9 km/h 11.9 km/h 53 % 0 mm
14:44 -8.9 °C -14.3 °C 35139.9 hPa NE 20.9 km/h 20.9 km/h 53 % 0 mm
14:49 -8.9 °C -14.2 °C 35139.9 hPa NE 15.3 km/h 15.3 km/h 53 % 0 mm
14:54 -8.9 °C -14.4 °C 35139.9 hPa NE 11.9 km/h 11.9 km/h 52 % 0 mm
14:59 -8.9 °C -14.3 °C 35139.9 hPa NE 17.9 km/h 17.9 km/h 52 % 0 mm
15:04 -8.8 °C -14.3 °C 35106 hPa NE 11.9 km/h 11.9 km/h 52 % 0 mm
15:09 -8.8 °C -14.3 °C 35106 hPa NE 11.9 km/h 11.9 km/h 52 % 0 mm
15:14 -8.9 °C -14.3 °C 35106 hPa NE 16.6 km/h 16.6 km/h 52 % 0 mm
15:19 -8.9 °C -14.6 °C 35139.9 hPa NE 15 km/h 15 km/h 51 % 0 mm
15:24 -8.9 °C -14.4 °C 35139.9 hPa NE 15 km/h 15 km/h 52 % 0 mm
15:29 -9 °C -14.6 °C 35139.9 hPa NE 20.9 km/h 20.9 km/h 51 % 0 mm
15:34 -8.9 °C -14.4 °C 35106 hPa NE 15.3 km/h 15.3 km/h 52 % 0 mm
15:39 -9 °C -14.6 °C 35106 hPa NE 15.6 km/h 15.6 km/h 51 % 0 mm
15:44 -9 °C -14.6 °C 35106 hPa NE 11.9 km/h 11.9 km/h 51 % 0 mm
15:49 -9 °C -14.6 °C 35139.9 hPa NE 17.9 km/h 17.9 km/h 51 % 0 mm
15:54 -9 °C -14.6 °C 35139.9 hPa NE 23.8 km/h 23.8 km/h 51 % 0 mm
15:59 -9.1 °C -14.7 °C 35139.9 hPa NE 15 km/h 15 km/h 51 % 0 mm
16:04 -9.1 °C -14.7 °C 35139.9 hPa NE 26.9 km/h 26.9 km/h 51 % 0 mm
16:09 -9.2 °C -14.8 °C 35139.9 hPa NE 20.9 km/h 20.9 km/h 51 % 0 mm
16:14 -9.1 °C -14.7 °C 35139.9 hPa NE 20.9 km/h 20.9 km/h 51 % 0 mm
16:19 -9.2 °C -14.8 °C 35139.9 hPa NE 17.9 km/h 17.9 km/h 51 % 0 mm
16:24 -9.3 °C -14.9 °C 35139.9 hPa NE 11.9 km/h 11.9 km/h 51 % 0 mm
16:29 -9.3 °C -14.9 °C 35139.9 hPa NE 15 km/h 15 km/h 51 % 0 mm
16:34 -9.3 °C -14.9 °C 35106 hPa NE 17.9 km/h 17.9 km/h 51 % 0 mm
16:35 -9.3 °C -14.9 °C 35106 hPa NE 17.9 km/h 17.9 km/h 51 % 0 mm
16:40 -9.3 °C -14.9 °C 35106 hPa NE 15 km/h 15 km/h 51 % 0 mm
16:45 -9.3 °C -14.9 °C 35106 hPa NE 9 km/h 9 km/h 51 % 0 mm
16:50 -9.2 °C -14.7 °C 35139.9 hPa NE 9 km/h 9 km/h 52 % 0 mm
16:55 -9.2 °C -14.7 °C 35139.9 hPa NE 6 km/h 6 km/h 52 % 0 mm
17:00 -9.4 °C -14.9 °C 35139.9 hPa NE 9 km/h 9 km/h 51 % 0 mm
17:05 -9.3 °C -14.7 °C 35139.9 hPa NE 6 km/h   52 % 0 mm
17:10 -9.2 °C -14.7 °C 35139.9 hPa NE 6.3 km/h 6.3 km/h 52 % 0 mm
17:15 -9.3 °C -14.7 °C 35139.9 hPa NE 6 km/h 6 km/h 52 % 0 mm
17:20 -9.2 °C -14.6 °C 35139.9 hPa NE 6 km/h 6 km/h 52 % 0 mm
17:25 -9.2 °C -14.5 °C 35139.9 hPa NE 3.1 km/h   53 % 0 mm
17:30 -9.3 °C -14.6 °C 35139.9 hPa NE 3.1 km/h 3.1 km/h 53 % 0 mm
17:35 -9.4 °C -14.7 °C 35139.9 hPa NE 3.1 km/h   53 % 0 mm
17:40 -9.5 °C -14.8 °C 35139.9 hPa Calm     53 % 0 mm
17:45 -9.6 °C -14.8 °C 35139.9 hPa Calm     53 % 0 mm
17:50 -9.7 °C -14.9 °C 35139.9 hPa Calm     53 % 0 mm
17:55 -9.8 °C -15.1 °C 35139.9 hPa Calm     53 % 0 mm
18:00 -9.9 °C -15.2 °C 35139.9 hPa NE 3.1 km/h 3.7 km/h 53 % 0 mm
18:05 -10 °C -15.2 °C 35139.9 hPa NE 4.2 km/h   53 % 0 mm
18:10 -10.2 °C -15.2 °C 35139.9 hPa NE 4.2 km/h 4.2 km/h 54 % 0 mm
18:15 -10.3 °C -15.3 °C 35139.9 hPa NE 3.1 km/h   54 % 0 mm
18:20 -10.4 °C -15.4 °C 35139.9 hPa Calm     54 % 0 mm
18:25 -10.5 °C -15.6 °C 35139.9 hPa Calm   5.1 km/h 54 % 0 mm
18:30 -10.6 °C -15.5 °C 35139.9 hPa Calm     55 % 0 mm
18:35 -10.7 °C -15.6 °C 35139.9 hPa Calm   5.1 km/h 55 % 0 mm
18:40 -10.6 °C -15.5 °C 35139.9 hPa NE 6 km/h 6 km/h 55 % 0 mm
18:45 -10.7 °C -15.6 °C 35139.9 hPa NE 2.3 km/h   55 % 0 mm
18:50 -10.8 °C -15.6 °C 35139.9 hPa NE 2.6 km/h 2.6 km/h 56 % 0 mm
18:55 -10.9 °C -15.7 °C 35139.9 hPa Calm   2.6 km/h 56 % 0 mm
19:00 -11.1 °C -15.8 °C 35139.9 hPa Calm     56 % 0 mm
19:05 -11.1 °C -15.7 °C 35173.8 hPa Calm   2.6 km/h 57 % 0 mm
19:10 -11.3 °C -15.9 °C 35173.8 hPa NE 2.6 km/h 5.1 km/h 57 % 0 mm
19:15 -11.4 °C -15.8 °C 35173.8 hPa Calm   5.1 km/h 58 % 0 mm
19:20 -11.4 °C -15.9 °C 35173.8 hPa Calm     58 % 0 mm
19:25 -11.4 °C -15.9 °C 35173.8 hPa NE 5.1 km/h 7.7 km/h 58 % 0 mm
19:30 -11.5 °C -15.8 °C 35173.8 hPa NE 2.6 km/h 5.1 km/h 59 % 0 mm
19:35 -11.6 °C -15.8 °C 35173.8 hPa NE 5.1 km/h 7.7 km/h 59 % 0 mm
19:40 -11.6 °C -15.8 °C 35173.8 hPa NE 2.6 km/h 5.1 km/h 60 % 0 mm
19:45 -11.7 °C -15.7 °C 35173.8 hPa NE 2.6 km/h 5.1 km/h 61 % 0 mm
19:50 -11.7 °C -15.6 °C 35173.8 hPa NE 2.6 km/h 5.1 km/h 62 % 0 mm
19:55 -11.8 °C -15.7 °C 35173.8 hPa NE 2.6 km/h 7.7 km/h 62 % 0 mm
20:00 -11.8 °C -15.5 °C 35173.8 hPa NE 5.1 km/h 7.7 km/h 63 % 0 mm
20:05 -11.8 °C -15.4 °C 35173.8 hPa NE 2.6 km/h 5.1 km/h 64 % 0 mm
20:10 -11.8 °C -15.4 °C 35173.8 hPa NE 2.6 km/h 5.1 km/h 64 % 0 mm
20:15 -11.9 °C -15.4 °C 35173.8 hPa NE 2.6 km/h 5.1 km/h 65 % 0 mm
20:20 -11.9 °C -15.4 °C 35173.8 hPa Calm   2.6 km/h 65 % 0 mm
20:25 -11.9 °C -15.3 °C 35173.8 hPa Calm     66 % 0 mm
20:30 -12 °C -15.4 °C 35173.8 hPa NE 6 km/h 6 km/h 66 % 0 mm
20:35 -12.1 °C -15.4 °C 35173.8 hPa NE 2.6 km/h 5.1 km/h 66 % 0 mm
20:40 -12.2 °C -15.4 °C 35173.8 hPa NE 3.1 km/h 4.2 km/h 67 % 0 mm
20:45 -12.2 °C -15.4 °C 35173.8 hPa NE 6.3 km/h 6.3 km/h 67 % 0 mm
20:50 -12.3 °C -15.4 °C 35173.8 hPa NE 6 km/h 6 km/h 68 % 0 mm
20:55 -12.4 °C -15.5 °C 35173.8 hPa NE 3.1 km/h   68 % 0 mm
21:00 -12.4 °C -15.6 °C 35173.8 hPa NE 3.1 km/h 3.1 km/h 68 % 0 mm
21:05 -12.6 °C -15.7 °C 35173.8 hPa NE 4.2 km/h 4.2 km/h 68 % 0 mm
21:10 -12.6 °C -15.7 °C 35173.8 hPa NE 6.3 km/h 6.3 km/h 68 % 0 mm
21:15 -12.6 °C -15.7 °C 35173.8 hPa NE 9 km/h 9 km/h 68 % 0 mm
21:20 -12.7 °C -15.8 °C 35173.8 hPa NE 9 km/h 9 km/h 68 % 0 mm
21:25 -12.7 °C -15.7 °C 35173.8 hPa NE 6.3 km/h 6.3 km/h 69 % 0 mm
21:30 -12.7 °C -15.7 °C 35173.8 hPa NE 6 km/h 6 km/h 69 % 0 mm
21:35 -12.7 °C -15.7 °C 35173.8 hPa NE 6.8 km/h 6.8 km/h 69 % 0 mm
21:40 -12.7 °C -15.7 °C 35173.8 hPa NE 5.1 km/h 7.7 km/h 69 % 0 mm
21:45 -12.7 °C -15.7 °C 35173.8 hPa NE 6 km/h 6 km/h 69 % 0 mm
21:50 -12.8 °C -15.8 °C 35173.8 hPa NE 6 km/h 6.3 km/h 69 % 0 mm
21:55 -12.8 °C -15.8 °C 35173.8 hPa NE 6.8 km/h 6.8 km/h 69 % 0 mm
22:00 -12.9 °C -15.9 °C 35173.8 hPa NE 5.1 km/h 7.7 km/h 69 % 0 mm
22:05 -12.9 °C -15.9 °C 35173.8 hPa NE 3.1 km/h 3.1 km/h 69 % 0 mm
22:10 -12.9 °C -15.8 °C 35173.8 hPa NE 3.1 km/h   70 % 0 mm
22:15 -13 °C -16 °C 35173.8 hPa NE 3.1 km/h   69 % 0 mm
22:20 -13 °C -16 °C 35173.8 hPa NE 6 km/h 6 km/h 69 % 0 mm
22:25 -13.1 °C -16.1 °C 35173.8 hPa NE 3.1 km/h   69 % 0 mm
22:30 -13.1 °C -16.1 °C 35173.8 hPa NE 5.1 km/h 5.1 km/h 69 % 0 mm
22:35 -13.1 °C -16.1 °C 35173.8 hPa NE 9 km/h 9 km/h 69 % 0 mm
22:40 -13.1 °C -16.1 °C 35173.8 hPa NE 9 km/h 9 km/h 69 % 0 mm
22:45 -13.1 °C -16.1 °C 35173.8 hPa NE 6 km/h 6 km/h 69 % 0 mm
22:50 -13.1 °C -16.1 °C 35173.8 hPa NE 6.3 km/h 6.3 km/h 69 % 0 mm
22:55 -13.2 °C -16.2 °C 35173.8 hPa NE 7.6 km/h 7.6 km/h 69 % 0 mm
23:00 -13.2 °C -16.2 °C 35173.8 hPa NE 6 km/h 6 km/h 69 % 0 mm
23:05 -13.2 °C -16.2 °C 35173.8 hPa NE 6 km/h 6 km/h 69 % 0 mm
23:10 -13.3 °C -16.2 °C 35173.8 hPa NE 6 km/h 6 km/h 69 % 0 mm
23:15 -13.3 °C -16.2 °C 35173.8 hPa NE 6 km/h 6.3 km/h 69 % 0 mm
23:20 -13.3 °C -16.3 °C 35173.8 hPa NE 6 km/h 6 km/h 69 % 0 mm
23:25 -13.3 °C -16.3 °C 35173.8 hPa NE 6 km/h 6 km/h 69 % 0 mm
23:30 -13.4 °C -16.2 °C 35173.8 hPa NE 4.2 km/h 4.2 km/h 70 % 0 mm
23:35 -13.4 °C -16.3 °C 35173.8 hPa NE 6 km/h 6 km/h 70 % 0 mm
23:40 -13.5 °C -16.3 °C 35173.8 hPa NE 6 km/h 6 km/h 70 % 0 mm
23:45 -13.6 °C -16.4 °C 35173.8 hPa NE 3.1 km/h   70 % 0 mm
23:50 -13.6 °C -16.4 °C 35173.8 hPa NE 3.1 km/h 3.1 km/h 70 % 0 mm
23:55 -13.6 °C -16.4 °C 35173.8 hPa NE 6 km/h   70 % 0 mm
Meteo Sesrovires
Elogis d' Weather Underground - 2 mb

Guio original per  Jim McMurry - jmcmurry@mwt.net Adaptat per a la plantilla per  Wim van der Kuil - Leuven-Template.eu

Trobareu la nostra informacio del temps tambe a:

Weather Underground

AWEKAS